Time;durP1;ratioP1;P1;durP2;ratioP2;P2;SDS_P1;SDS_P2;PMS_P1;PMS_P2;Temp;Humidity;BMP_temperature;BMP_pressure;BME280_temperature;BME280_humidity;BME280_pressure;Samples;Min_cycle;Max_cycle;Signal;HPM_P1;HPM_P2
2021/12/08 00:00:18;;;;;;;8.15;6.40;;;;;;;;;;358609;147;858555;-64
2021/12/08 00:01:21;;;;;;;7.48;5.82;;;;;;;;;;362448;147;857202;-63
2021/12/08 00:02:25;;;;;;;8.60;6.05;;;;;;;;;;362364;147;857376;-66
2021/12/08 00:03:28;;;;;;;9.89;6.33;;;;;;;;;;356996;147;857249;-64
2021/12/08 00:04:29;;;;;;;8.28;6.00;;;;;;;;;;360827;147;857282;-64
2021/12/08 00:05:31;;;;;;;8.94;6.02;;;;;;;;;;358588;147;859747;-63
2021/12/08 00:06:33;;;;;;;11.25;6.51;;;;;;;;;;354081;147;857350;-65
2021/12/08 00:07:34;;;;;;;8.91;6.27;;;;;;;;;;361144;147;865086;-64
2021/12/08 00:08:36;;;;;;;9.42;6.80;;;;;;;;;;361693;147;864833;-64
2021/12/08 00:09:59;;;;;;;8.88;6.21;;;;;;;;;;357999;147;866686;-64
2021/12/08 00:13:18;;;;;;;9.57;6.69;;;;;;;;;;348864;149;857280;-63
2021/12/08 00:14:19;;;;;;;11.00;6.76;;;;;;;;;;347215;153;858465;-63
2021/12/08 00:15:21;;;;;;;10.55;6.69;;;;;;;;;;361328;147;865213;-64
2021/12/08 00:16:23;;;;;;;11.17;6.68;;;;;;;;;;361612;147;865651;-66
2021/12/08 00:17:25;;;;;;;11.62;6.64;;;;;;;;;;359220;149;857270;-63
2021/12/08 00:18:27;;;;;;;11.26;7.20;;;;;;;;;;360933;149;865719;-63
2021/12/08 00:19:29;;;;;;;10.64;6.81;;;;;;;;;;359099;148;865133;-63
2021/12/08 00:20:32;;;;;;;10.51;6.94;;;;;;;;;;358037;149;857240;-64
2021/12/08 00:21:34;;;;;;;11.43;7.91;;;;;;;;;;361230;148;858033;-64
2021/12/08 00:22:36;;;;;;;10.57;7.29;;;;;;;;;;360980;146;857189;-64
2021/12/08 00:23:37;;;;;;;10.05;6.93;;;;;;;;;;360011;147;866503;-64
2021/12/08 00:24:39;;;;;;;9.94;6.56;;;;;;;;;;359323;148;859244;-64
2021/12/08 00:25:41;;;;;;;12.82;7.85;;;;;;;;;;358679;148;865930;-64
2021/12/08 00:26:43;;;;;;;8.03;6.19;;;;;;;;;;359928;147;857646;-64
2021/12/08 00:27:45;;;;;;;10.83;7.68;;;;;;;;;;358189;146;857291;-64
2021/12/08 00:28:46;;;;;;;12.45;7.37;;;;;;;;;;360413;148;859999;-64
2021/12/08 00:29:48;;;;;;;13.44;8.04;;;;;;;;;;360581;146;858550;-64
2021/12/08 00:30:51;;;;;;;11.01;6.89;;;;;;;;;;359471;147;863765;-64
2021/12/08 00:31:52;;;;;;;11.68;6.46;;;;;;;;;;358816;147;857312;-64
2021/12/08 00:32:55;;;;;;;12.94;7.52;;;;;;;;;;356750;148;857280;-64
2021/12/08 00:33:57;;;;;;;13.41;7.58;;;;;;;;;;358248;147;866133;-64
2021/12/08 00:34:59;;;;;;;10.89;7.76;;;;;;;;;;359195;147;857879;-63
2021/12/08 00:36:01;;;;;;;11.45;7.37;;;;;;;;;;354967;149;864232;-63
2021/12/08 00:37:03;;;;;;;11.35;6.85;;;;;;;;;;360256;148;858964;-65
2021/12/08 00:38:05;;;;;;;11.18;7.27;;;;;;;;;;360706;147;859058;-64
2021/12/08 00:39:06;;;;;;;10.12;6.34;;;;;;;;;;360443;147;857314;-64
2021/12/08 00:40:09;;;;;;;11.45;7.27;;;;;;;;;;359383;147;864833;-64
2021/12/08 00:41:11;;;;;;;11.23;7.05;;;;;;;;;;362303;147;857289;-64
2021/12/08 00:42:13;;;;;;;11.35;7.95;;;;;;;;;;360633;146;865405;-64
2021/12/08 00:43:14;;;;;;;11.62;7.54;;;;;;;;;;363265;147;857063;-64
2021/12/08 00:44:16;;;;;;;10.92;7.67;;;;;;;;;;361169;147;864840;-64
2021/12/08 00:45:18;;;;;;;11.82;6.78;;;;;;;;;;361176;147;864901;-64
2021/12/08 00:46:20;;;;;;;13.86;7.24;;;;;;;;;;357715;148;859396;-64
2021/12/08 00:47:21;;;;;;;13.17;7.86;;;;;;;;;;358908;147;859047;-64
2021/12/08 00:48:23;;;;;;;12.23;7.49;;;;;;;;;;361603;147;864998;-64
2021/12/08 00:49:25;;;;;;;11.83;7.93;;;;;;;;;;359535;147;864945;-64
2021/12/08 00:50:27;;;;;;;12.09;7.87;;;;;;;;;;358921;146;864863;-64
2021/12/08 00:51:29;;;;;;;14.29;8.63;;;;;;;;;;360262;147;857377;-64
2021/12/08 00:52:31;;;;;;;10.09;5.98;;;;;;;;;;358071;147;857369;-64
2021/12/08 00:53:33;;;;;;;13.12;8.76;;;;;;;;;;360730;147;864943;-64
2021/12/08 00:54:34;;;;;;;13.40;8.32;;;;;;;;;;361543;148;857066;-65
2021/12/08 00:55:36;;;;;;;12.20;7.51;;;;;;;;;;360747;147;857458;-64
2021/12/08 00:56:37;;;;;;;12.76;8.09;;;;;;;;;;357842;147;860145;-64
2021/12/08 00:57:39;;;;;;;13.44;8.35;;;;;;;;;;357675;147;865508;-64
2021/12/08 00:58:41;;;;;;;15.11;8.23;;;;;;;;;;358250;148;864887;-64
2021/12/08 00:59:42;;;;;;;16.96;8.88;;;;;;;;;;360222;147;865153;-64
2021/12/08 01:00:45;;;;;;;14.17;7.94;;;;;;;;;;358529;147;865799;-64
2021/12/08 01:01:47;;;;;;;12.13;7.72;;;;;;;;;;362021;147;864866;-65
2021/12/08 01:02:48;;;;;;;13.39;8.51;;;;;;;;;;360428;147;858275;-63
2021/12/08 01:03:50;;;;;;;14.19;8.80;;;;;;;;;;359595;147;866682;-64
2021/12/08 01:04:52;;;;;;;14.42;8.23;;;;;;;;;;358480;146;858941;-64
2021/12/08 01:05:54;;;;;;;16.25;8.63;;;;;;;;;;359980;147;859305;-64
2021/12/08 01:06:56;;;;;;;16.81;9.86;;;;;;;;;;360439;147;859910;-63
2021/12/08 01:07:58;;;;;;;16.79;9.94;;;;;;;;;;357910;149;860435;-64
2021/12/08 01:08:59;;;;;;;14.17;9.01;;;;;;;;;;357114;149;865807;-64
2021/12/08 01:10:01;;;;;;;14.92;8.84;;;;;;;;;;357968;148;858812;-66
2021/12/08 01:11:04;;;;;;;14.27;8.65;;;;;;;;;;355535;149;865060;-64
2021/12/08 01:12:06;;;;;;;17.23;10.16;;;;;;;;;;359853;149;866264;-64
2021/12/08 01:13:09;;;;;;;14.03;8.75;;;;;;;;;;357806;149;857664;-64
2021/12/08 01:14:10;;;;;;;16.25;9.57;;;;;;;;;;357404;149;857669;-64
2021/12/08 01:15:12;;;;;;;14.08;8.74;;;;;;;;;;355012;149;857293;-65
2021/12/08 01:16:15;;;;;;;17.86;9.69;;;;;;;;;;347701;151;866092;-64
2021/12/08 01:17:17;;;;;;;14.80;8.58;;;;;;;;;;352626;150;858602;-64
2021/12/08 01:18:19;;;;;;;15.96;9.23;;;;;;;;;;356983;148;858735;-65
2021/12/08 01:19:20;;;;;;;18.25;10.61;;;;;;;;;;353610;149;864968;-65
2021/12/08 01:20:24;;;;;;;17.61;9.85;;;;;;;;;;356564;145;857311;-66
2021/12/08 01:21:25;;;;;;;15.67;9.35;;;;;;;;;;356779;148;857094;-64
2021/12/08 01:22:27;;;;;;;18.69;10.29;;;;;;;;;;358976;148;865020;-66
2021/12/08 01:23:29;;;;;;;17.34;8.99;;;;;;;;;;358546;149;857359;-65
2021/12/08 01:24:31;;;;;;;14.63;9.47;;;;;;;;;;359449;148;866625;-66
2021/12/08 01:25:33;;;;;;;16.95;10.57;;;;;;;;;;356868;149;859002;-65
2021/12/08 01:26:34;;;;;;;16.52;9.09;;;;;;;;;;356436;149;858785;-66
2021/12/08 01:27:36;;;;;;;16.41;9.14;;;;;;;;;;356541;149;866460;-65
2021/12/08 01:28:38;;;;;;;15.44;10.90;;;;;;;;;;356151;147;864828;-64
2021/12/08 01:29:40;;;;;;;17.39;9.83;;;;;;;;;;356958;149;864997;-65
2021/12/08 01:30:41;;;;;;;15.39;9.30;;;;;;;;;;354148;149;857264;-65
2021/12/08 01:31:44;;;;;;;11.41;7.89;;;;;;;;;;359515;148;857343;-65
2021/12/08 01:32:45;;;;;;;18.63;9.67;;;;;;;;;;357959;148;864952;-65
2021/12/08 01:33:47;;;;;;;16.83;10.10;;;;;;;;;;359892;149;859312;-65
2021/12/08 01:34:51;;;;;;;17.29;10.40;;;;;;;;;;357983;148;865008;-65
2021/12/08 01:35:52;;;;;;;14.85;9.87;;;;;;;;;;357372;148;857187;-65
2021/12/08 01:36:54;;;;;;;16.91;8.86;;;;;;;;;;349615;150;857409;-66
2021/12/08 01:37:56;;;;;;;16.96;10.81;;;;;;;;;;348456;151;865071;-65
2021/12/08 01:38:57;;;;;;;22.43;10.19;;;;;;;;;;358476;149;858753;-65
2021/12/08 01:39:59;;;;;;;18.61;10.15;;;;;;;;;;357080;148;857324;-65
2021/12/08 01:41:01;;;;;;;18.76;10.27;;;;;;;;;;359763;149;866999;-65
2021/12/08 01:42:02;;;;;;;19.45;10.22;;;;;;;;;;357594;148;864126;-65
2021/12/08 01:43:11;;;;;;;17.76;10.94;;;;;;;;;;357904;148;866571;-65
2021/12/08 01:47:08;;;;;;;15.39;8.70;;;;;;;;;;357809;147;865067;-65
2021/12/08 01:48:10;;;;;;;17.29;9.95;;;;;;;;;;346866;152;865479;-62
2021/12/08 01:49:12;;;;;;;22.06;9.37;;;;;;;;;;347696;152;857460;-63
2021/12/08 01:50:14;;;;;;;17.48;9.53;;;;;;;;;;346558;152;857256;-63
2021/12/08 01:51:16;;;;;;;17.88;10.06;;;;;;;;;;344741;153;857069;-65
2021/12/08 01:52:17;;;;;;;15.99;10.06;;;;;;;;;;346001;152;863989;-64
2021/12/08 01:53:19;;;;;;;16.11;9.94;;;;;;;;;;347316;152;857550;-63
2021/12/08 01:54:21;;;;;;;17.59;9.07;;;;;;;;;;346364;152;865024;-64
2021/12/08 01:55:23;;;;;;;20.78;10.95;;;;;;;;;;346743;152;857343;-66
2021/12/08 01:56:25;;;;;;;17.87;9.99;;;;;;;;;;347337;152;864775;-63
2021/12/08 01:57:26;;;;;;;41.40;10.63;;;;;;;;;;347575;153;857336;-64
2021/12/08 01:58:28;;;;;;;18.62;10.56;;;;;;;;;;344507;152;857781;-65
2021/12/08 01:59:30;;;;;;;19.39;10.39;;;;;;;;;;343189;152;860861;-64
2021/12/08 02:00:33;;;;;;;17.13;9.54;;;;;;;;;;345763;152;859285;-65
2021/12/08 02:01:35;;;;;;;19.03;10.84;;;;;;;;;;345070;152;864991;-65
2021/12/08 02:02:37;;;;;;;16.28;9.90;;;;;;;;;;346062;152;857204;-64
2021/12/08 02:03:39;;;;;;;19.96;11.91;;;;;;;;;;345123;152;857222;-65
2021/12/08 02:04:41;;;;;;;21.27;10.22;;;;;;;;;;346801;153;864972;-64
2021/12/08 02:05:43;;;;;;;20.60;12.25;;;;;;;;;;346096;152;857668;-64
2021/12/08 02:06:45;;;;;;;21.24;11.24;;;;;;;;;;347305;152;865257;-66
2021/12/08 02:07:47;;;;;;;22.09;10.77;;;;;;;;;;346717;152;864691;-65
2021/12/08 02:08:50;;;;;;;15.84;9.14;;;;;;;;;;347567;152;857907;-64
2021/12/08 02:09:52;;;;;;;19.15;11.28;;;;;;;;;;347311;152;862566;-65
2021/12/08 02:10:54;;;;;;;21.58;11.39;;;;;;;;;;345505;152;859473;-65
2021/12/08 02:11:56;;;;;;;20.80;10.71;;;;;;;;;;349729;152;857935;-64
2021/12/08 02:12:58;;;;;;;19.58;10.97;;;;;;;;;;346754;152;857418;-65
2021/12/08 02:14:01;;;;;;;20.66;10.53;;;;;;;;;;345043;154;857339;-64
2021/12/08 02:15:04;;;;;;;20.09;11.34;;;;;;;;;;346532;152;864910;-64
2021/12/08 02:16:11;;;;;;;19.24;10.48;;;;;;;;;;348838;151;857585;-63
2021/12/08 02:17:12;;;;;;;17.56;10.32;;;;;;;;;;346999;151;858037;-63
2021/12/08 02:18:15;;;;;;;20.66;10.86;;;;;;;;;;346460;152;857651;-65
2021/12/08 02:19:16;;;;;;;20.79;10.59;;;;;;;;;;348383;152;864552;-64
2021/12/08 02:20:21;;;;;;;19.36;11.48;;;;;;;;;;345280;152;857139;-64
2021/12/08 02:21:24;;;;;;;19.95;10.44;;;;;;;;;;344273;154;859325;-64
2021/12/08 02:22:26;;;;;;;17.46;9.53;;;;;;;;;;347455;152;865260;-65
2021/12/08 02:23:30;;;;;;;20.00;11.19;;;;;;;;;;348256;152;864950;-65
2021/12/08 02:24:31;;;;;;;19.87;11.37;;;;;;;;;;343882;152;865218;-63
2021/12/08 02:25:32;;;;;;;21.24;10.14;;;;;;;;;;346498;152;857345;-64
2021/12/08 02:26:35;;;;;;;20.27;11.03;;;;;;;;;;346618;152;864582;-63
2021/12/08 02:27:36;;;;;;;19.37;10.55;;;;;;;;;;347285;152;858052;-63
2021/12/08 02:28:38;;;;;;;18.67;10.51;;;;;;;;;;343560;151;860269;-64
2021/12/08 02:29:51;;;;;;;19.39;11.19;;;;;;;;;;347406;151;864549;-63
2021/12/08 02:30:55;;;;;;;19.51;10.63;;;;;;;;;;347469;152;865072;-63
2021/12/08 02:32:00;;;;;;;17.34;9.68;;;;;;;;;;348336;153;860044;-63
2021/12/08 02:46:44;;;;;;;16.62;9.16;;;;;;;;;;346626;153;864931;-63
2021/12/08 02:48:52;;;;;;;19.50;8.97;;;;;;;;;;351332;150;857359;-67
2021/12/08 02:49:54;;;;;;;14.68;9.06;;;;;;;;;;350863;152;857817;-65
2021/12/08 02:50:56;;;;;;;16.55;8.93;;;;;;;;;;350155;151;859472;-63
2021/12/08 02:51:58;;;;;;;17.69;8.35;;;;;;;;;;351116;150;857373;-63
2021/12/08 02:52:59;;;;;;;16.93;8.91;;;;;;;;;;349246;151;859132;-64
2021/12/08 02:54:01;;;;;;;20.24;8.90;;;;;;;;;;356939;149;865172;-63
2021/12/08 02:55:04;;;;;;;15.43;8.81;;;;;;;;;;352166;149;865023;-64
2021/12/08 02:56:06;;;;;;;18.19;9.80;;;;;;;;;;353039;149;859404;-64
2021/12/08 02:57:08;;;;;;;16.61;9.76;;;;;;;;;;352239;151;857202;-64
2021/12/08 02:58:10;;;;;;;24.36;8.76;;;;;;;;;;351595;151;856162;-64
2021/12/08 02:59:12;;;;;;;15.18;9.20;;;;;;;;;;352689;150;857752;-64
2021/12/08 03:00:15;;;;;;;15.53;8.34;;;;;;;;;;350942;151;857201;-64
2021/12/08 03:01:17;;;;;;;16.04;8.93;;;;;;;;;;353254;152;858984;-64
2021/12/08 03:02:20;;;;;;;17.81;9.37;;;;;;;;;;353085;151;860719;-64
2021/12/08 03:03:21;;;;;;;13.13;8.22;;;;;;;;;;352694;150;857257;-64
2021/12/08 03:04:23;;;;;;;16.20;9.09;;;;;;;;;;351810;151;865052;-63
2021/12/08 03:05:25;;;;;;;15.76;8.24;;;;;;;;;;353021;151;865924;-63
2021/12/08 03:06:27;;;;;;;15.80;9.18;;;;;;;;;;352739;151;865069;-63
2021/12/08 03:07:29;;;;;;;14.42;8.20;;;;;;;;;;353651;151;857426;-64
2021/12/08 03:08:30;;;;;;;15.01;8.13;;;;;;;;;;351781;151;865074;-64
2021/12/08 03:09:32;;;;;;;15.26;9.06;;;;;;;;;;351263;151;865514;-64
2021/12/08 03:10:36;;;;;;;24.25;8.96;;;;;;;;;;353230;151;857225;-64
2021/12/08 03:11:37;;;;;;;15.99;10.04;;;;;;;;;;353245;151;864677;-64
2021/12/08 03:12:39;;;;;;;15.10;8.21;;;;;;;;;;353132;151;858487;-64
2021/12/08 03:13:41;;;;;;;18.04;8.66;;;;;;;;;;353090;151;864996;-64
2021/12/08 03:14:44;;;;;;;16.51;9.36;;;;;;;;;;351098;151;867154;-64
2021/12/08 03:15:46;;;;;;;18.02;9.12;;;;;;;;;;350357;151;865000;-64
2021/12/08 03:16:48;;;;;;;16.40;8.94;;;;;;;;;;353238;151;865180;-64
2021/12/08 03:17:50;;;;;;;14.27;8.66;;;;;;;;;;352649;150;865451;-64
2021/12/08 03:18:51;;;;;;;16.98;8.69;;;;;;;;;;354610;151;865457;-62
2021/12/08 03:19:53;;;;;;;20.00;10.03;;;;;;;;;;352369;150;866741;-65
2021/12/08 03:20:55;;;;;;;16.71;9.15;;;;;;;;;;351902;151;865864;-65
2021/12/08 03:21:56;;;;;;;17.34;9.08;;;;;;;;;;349969;151;867049;-63
2021/12/08 03:23:02;;;;;;;15.84;8.15;;;;;;;;;;348083;152;865911;-63
2021/12/08 03:24:26;;;;;;;18.76;8.76;;;;;;;;;;352609;151;865072;-63
2021/12/08 03:25:25;;;;;;;16.34;8.79;;;;;;;;;;352749;151;857659;-63
2021/12/08 03:26:32;;;;;;;15.06;8.77;;;;;;;;;;350672;151;857178;-65
2021/12/08 03:27:35;;;;;;;17.14;9.33;;;;;;;;;;352936;151;859910;-64
2021/12/08 03:28:42;;;;;;;17.40;9.57;;;;;;;;;;352892;150;858642;-65
2021/12/08 03:29:50;;;;;;;18.26;8.83;;;;;;;;;;353484;151;858125;-64
2021/12/08 03:32:04;;;;;;;12.66;7.93;;;;;;;;;;352126;151;857387;-64
2021/12/08 03:32:59;;;;;;;23.44;9.44;;;;;;;;;;348443;151;857781;-64
2021/12/08 03:34:00;;;;;;;16.38;9.51;;;;;;;;;;352798;151;857381;-64
2021/12/08 03:35:02;;;;;;;15.57;9.29;;;;;;;;;;353052;151;858741;-64
2021/12/08 03:36:04;;;;;;;17.20;9.39;;;;;;;;;;351689;150;865412;-62
2021/12/08 03:37:06;;;;;;;16.21;9.04;;;;;;;;;;349906;151;857284;-64
2021/12/08 03:38:07;;;;;;;16.15;9.04;;;;;;;;;;352549;151;863467;-64
2021/12/08 03:39:09;;;;;;;17.51;8.96;;;;;;;;;;351498;151;859186;-63
2021/12/08 03:40:13;;;;;;;16.57;9.29;;;;;;;;;;351884;150;865620;-63
2021/12/08 03:41:15;;;;;;;14.54;8.16;;;;;;;;;;354396;151;856600;-65
2021/12/08 03:42:18;;;;;;;17.97;9.12;;;;;;;;;;353084;151;858802;-63
2021/12/08 03:43:20;;;;;;;15.16;9.13;;;;;;;;;;352422;150;866541;-64
2021/12/08 03:44:21;;;;;;;17.19;9.46;;;;;;;;;;351912;152;857455;-64
2021/12/08 03:45:34;;;;;;;14.56;8.79;;;;;;;;;;350604;150;864962;-63
2021/12/08 03:46:40;;;;;;;16.04;9.30;;;;;;;;;;351960;151;861053;-64
2021/12/08 03:47:41;;;;;;;16.62;8.91;;;;;;;;;;350355;151;858003;-64
2021/12/08 03:48:49;;;;;;;17.11;8.96;;;;;;;;;;352451;152;858194;-64
2021/12/08 03:49:47;;;;;;;18.42;10.37;;;;;;;;;;350849;151;865090;-64
2021/12/08 03:50:48;;;;;;;18.66;9.74;;;;;;;;;;351554;151;865413;-64
2021/12/08 03:51:50;;;;;;;15.59;9.56;;;;;;;;;;351931;152;857274;-63
2021/12/08 03:52:51;;;;;;;15.86;9.64;;;;;;;;;;351017;151;857954;-64
2021/12/08 03:53:53;;;;;;;15.86;8.91;;;;;;;;;;352217;151;864307;-64
2021/12/08 03:54:54;;;;;;;16.51;10.24;;;;;;;;;;351519;151;857437;-63
2021/12/08 03:55:56;;;;;;;17.65;10.03;;;;;;;;;;352303;150;862475;-63
2021/12/08 03:56:58;;;;;;;21.49;9.79;;;;;;;;;;350248;151;857518;-63
2021/12/08 03:57:59;;;;;;;17.97;9.98;;;;;;;;;;351307;150;865255;-63
2021/12/08 03:59:01;;;;;;;19.57;8.89;;;;;;;;;;351796;152;856384;-64
2021/12/08 04:00:05;;;;;;;19.29;9.44;;;;;;;;;;352595;151;858712;-64
2021/12/08 04:01:07;;;;;;;16.68;9.20;;;;;;;;;;350419;151;858999;-65
2021/12/08 04:02:08;;;;;;;17.05;8.92;;;;;;;;;;353002;151;867248;-64
2021/12/08 04:03:11;;;;;;;16.19;7.99;;;;;;;;;;351668;151;863998;-64
2021/12/08 04:04:13;;;;;;;21.09;9.13;;;;;;;;;;350006;151;857676;-63
2021/12/08 04:05:20;;;;;;;20.38;9.69;;;;;;;;;;352236;149;857186;-63
2021/12/08 04:06:34;;;;;;;16.05;8.93;;;;;;;;;;348393;151;858965;-64
2021/12/08 04:07:26;;;;;;;17.99;9.79;;;;;;;;;;349369;151;857928;-64
2021/12/08 04:08:38;;;;;;;18.24;9.23;;;;;;;;;;351906;151;866134;-64
2021/12/08 04:09:45;;;;;;;18.36;9.22;;;;;;;;;;349878;151;856696;-64
2021/12/08 04:10:38;;;;;;;18.84;9.13;;;;;;;;;;345929;149;858210;-62
2021/12/08 04:11:40;;;;;;;19.20;9.30;;;;;;;;;;352169;151;858733;-63
2021/12/08 04:12:42;;;;;;;17.98;9.56;;;;;;;;;;350576;151;857186;-64
2021/12/08 04:13:46;;;;;;;19.79;10.30;;;;;;;;;;351669;149;866721;-64
2021/12/08 04:14:53;;;;;;;16.58;9.58;;;;;;;;;;349320;151;866077;-63
2021/12/08 04:15:54;;;;;;;12.88;7.86;;;;;;;;;;351550;151;859982;-64
2021/12/08 04:16:58;;;;;;;22.81;9.58;;;;;;;;;;352368;152;858343;-64
2021/12/08 04:18:00;;;;;;;21.06;9.53;;;;;;;;;;351764;151;857432;-64
2021/12/08 04:19:01;;;;;;;15.39;8.76;;;;;;;;;;352608;150;864552;-65
2021/12/08 04:20:05;;;;;;;18.26;10.63;;;;;;;;;;349773;151;865431;-64
2021/12/08 04:21:07;;;;;;;20.06;10.14;;;;;;;;;;352847;151;858514;-63
2021/12/08 04:22:10;;;;;;;20.00;10.01;;;;;;;;;;350071;151;859648;-64
2021/12/08 04:23:13;;;;;;;17.90;9.51;;;;;;;;;;351428;151;863978;-64
2021/12/08 04:24:15;;;;;;;25.83;9.51;;;;;;;;;;353181;151;865162;-64
2021/12/08 04:25:18;;;;;;;18.72;10.49;;;;;;;;;;352226;151;857127;-64
2021/12/08 04:26:22;;;;;;;17.90;9.43;;;;;;;;;;350986;151;858096;-64
2021/12/08 04:27:26;;;;;;;19.96;10.08;;;;;;;;;;352248;150;858653;-64
2021/12/08 04:28:28;;;;;;;20.04;9.93;;;;;;;;;;348743;151;858907;-64
2021/12/08 04:29:31;;;;;;;18.95;9.25;;;;;;;;;;350093;151;864788;-64
2021/12/08 04:30:37;;;;;;;18.56;9.86;;;;;;;;;;350341;149;858946;-65
2021/12/08 04:31:39;;;;;;;15.62;9.17;;;;;;;;;;351946;151;859575;-65
2021/12/08 04:32:41;;;;;;;19.61;9.51;;;;;;;;;;351559;151;857809;-65
2021/12/08 04:33:43;;;;;;;26.34;9.83;;;;;;;;;;351098;151;857399;-64
2021/12/08 04:34:45;;;;;;;18.14;9.55;;;;;;;;;;351194;150;865037;-64
2021/12/08 04:35:48;;;;;;;20.26;9.14;;;;;;;;;;350486;152;859881;-63
2021/12/08 04:36:51;;;;;;;16.88;9.49;;;;;;;;;;349602;151;857840;-64
2021/12/08 04:37:56;;;;;;;18.54;9.94;;;;;;;-0.35;93.19;151311.41;351058;150;865333;-64
2021/12/08 04:39:01;;;;;;;15.97;8.33;;;;;;;;;;351154;151;859487;-64
2021/12/08 04:40:24;;;;;;;15.99;8.39;;;;;;;;;;350380;151;857807;-64
2021/12/08 04:41:19;;;;;;;15.08;8.15;;;;;;;;;;352002;151;865017;-64
2021/12/08 04:42:31;;;;;;;17.30;8.72;;;;;;;;;;351608;151;857618;-65
2021/12/08 04:43:31;;;;;;;19.63;8.63;;;;;;;;;;352733;151;857310;-65
2021/12/08 04:44:38;;;;;;;15.59;8.43;;;;;;;;;;350424;150;864875;-64
2021/12/08 04:45:42;;;;;;;16.06;9.36;;;;;;;;;;347721;151;867457;-64
2021/12/08 04:47:03;;;;;;;17.39;9.55;;;;;;;;;;353318;151;857290;-63
2021/12/08 04:48:14;;;;;;;16.07;8.85;;;;;;;;;;350281;151;857323;-63
2021/12/08 04:51:46;;;;;;;21.77;9.74;;;;;;;;;;350902;151;857152;-63
2021/12/08 05:00:46;;;;;;;20.84;9.37;;;;;;;;;;350870;152;858054;-64
2021/12/08 05:03:17;;;;;;;20.26;11.18;;;;;;;;;;350195;151;857861;-65
2021/12/08 05:05:20;;;;;;;17.64;10.29;;;;;;;;;;354933;149;859373;-66
2021/12/08 05:06:35;;;;;;;18.85;10.40;;;;;;;;;;351218;151;857458;-64
2021/12/08 05:08:41;;;;;;;20.31;9.96;;;;;;;;;;347217;151;857727;-64
2021/12/08 05:09:44;;;;;;;15.34;8.32;;;;;;;;;;350086;151;858250;-64
2021/12/08 05:10:46;;;;;;;17.67;9.57;;;;;;;;;;352371;151;858996;-64
2021/12/08 05:11:49;;;;;;;17.94;9.73;;;;;;;;;;351484;152;864976;-64
2021/12/08 05:12:51;;;;;;;15.49;9.03;;;;;;;;;;350233;151;857332;-65
2021/12/08 05:13:57;;;;;;;17.39;9.02;;;;;;;;;;350955;151;857916;-66
2021/12/08 05:15:00;;;;;;;22.27;9.87;;;;;;;;;;351630;151;860434;-65
2021/12/08 05:16:02;;;;;;;18.57;9.28;;;;;;;;;;345946;151;859030;-66
2021/12/08 05:17:06;;;;;;;19.15;9.70;;;;;;;;;;351532;151;866778;-64
2021/12/08 05:18:09;;;;;;;21.01;9.92;;;;;;;;;;349848;151;864957;-66
2021/12/08 05:19:12;;;;;;;16.36;10.10;;;;;;;;;;350740;152;858592;-66
2021/12/08 05:20:15;;;;;;;14.60;8.90;;;;;;;;;;347833;151;857864;-65
2021/12/08 05:21:22;;;;;;;18.06;9.91;;;;;;;;;;350156;151;857223;-66
2021/12/08 05:22:29;;;;;;;18.73;9.48;;;;;;;;;;352199;151;859372;-66
2021/12/08 05:23:32;;;;;;;17.36;9.02;;;;;;;;;;352761;150;857638;-66
2021/12/08 05:24:35;;;;;;;15.00;8.77;;;;;;;;;;350110;150;858891;-65
2021/12/08 05:25:37;;;;;;;16.01;9.57;;;;;;;;;;350855;151;863795;-67
2021/12/08 05:26:41;;;;;;;15.97;8.85;;;;;;;;;;353054;151;858576;-68
2021/12/08 05:27:46;;;;;;;15.49;9.10;;;;;;;;;;352508;151;857632;-67
2021/12/08 05:28:47;;;;;;;19.51;10.32;;;;;;;;;;349781;151;860738;-67
2021/12/08 05:29:51;;;;;;;18.20;9.43;;;;;;;;;;351723;151;859021;-67
2021/12/08 05:31:01;;;;;;;19.52;10.34;;;;;;;;;;351208;151;857332;-68
2021/12/08 05:32:04;;;;;;;17.29;9.68;;;;;;;;;;352133;151;858773;-67
2021/12/08 05:33:06;;;;;;;21.01;9.49;;;;;;;;;;349310;151;858852;-67
2021/12/08 05:34:08;;;;;;;18.15;9.05;;;;;;;;;;350710;151;858477;-67
2021/12/08 05:35:10;;;;;;;18.44;10.28;;;;;;;;;;349983;152;856914;-66
2021/12/08 05:36:14;;;;;;;15.30;9.48;;;;;;;;;;352049;151;864953;-67
2021/12/08 05:37:16;;;;;;;17.85;8.31;;;;;;;;;;351390;152;856640;-67
2021/12/08 05:38:17;;;;;;;16.99;8.51;;;;;;;;;;352755;150;856485;-66
2021/12/08 05:39:20;;;;;;;20.35;10.53;;;;;;;;;;349700;150;857319;-66
2021/12/08 05:40:24;;;;;;;15.83;8.26;;;;;;;;;;351828;150;857259;-67
2021/12/08 05:41:27;;;;;;;16.24;9.48;;;;;;;;;;350967;150;865001;-66
2021/12/08 05:42:30;;;;;;;20.31;9.59;;;;;;;;;;349825;150;858339;-67
2021/12/08 05:43:31;;;;;;;16.75;8.43;;;;;;;;;;343059;154;859481;-67
2021/12/08 05:44:33;;;;;;;16.04;7.99;;;;;;;;;;350660;150;865042;-66
2021/12/08 05:45:35;;;;;;;14.76;8.74;;;;;;;;;;351291;151;864888;-67
2021/12/08 05:46:40;;;;;;;20.59;9.01;;;;;;;;;;351336;151;865396;-66
2021/12/08 05:47:40;;;;;;;19.09;8.57;;;;;;;;;;352006;151;860548;-66
2021/12/08 05:48:42;;;;;;;15.09;9.23;;;;;;;;;;349153;151;857192;-66
2021/12/08 05:49:44;;;;;;;16.41;8.93;;;;;;;;;;351291;151;857111;-66
2021/12/08 05:50:47;;;;;;;13.67;7.88;;;;;;;;;;351037;150;866894;-65
2021/12/08 05:51:49;;;;;;;14.58;7.86;;;;;;;;;;352859;152;858703;-65
2021/12/08 05:52:53;;;;;;;15.01;8.30;;;;;;;;;;352154;151;857310;-65
2021/12/08 05:53:55;;;;;;;15.68;9.16;;;;;;;;;;351659;150;857311;-65
2021/12/08 05:54:57;;;;;;;15.61;7.59;;;;;;;;;;352664;150;859539;-65
2021/12/08 05:55:58;;;;;;;15.76;8.27;;;;;;;;;;352195;151;865317;-66
2021/12/08 05:57:01;;;;;;;13.07;7.89;;;;;;;;;;351804;151;865048;-65
2021/12/08 05:58:04;;;;;;;14.09;8.05;;;;;;;;;;352698;150;859788;-65
2021/12/08 05:59:05;;;;;;;13.31;8.03;;;;;;;;;;351035;151;859541;-65
2021/12/08 06:00:09;;;;;;;12.57;8.07;;;;;;;;;;352228;150;859799;-65
2021/12/08 06:01:30;;;;;;;13.19;7.86;;;;;;;;;;352303;150;856139;-65
2021/12/08 06:02:33;;;;;;;14.99;6.99;;;;;;;;;;348657;153;857348;-66
2021/12/08 06:03:34;;;;;;;12.77;7.07;;;;;;;;;;349134;151;857745;-65
2021/12/08 06:04:36;;;;;;;12.61;6.54;;;;;;;;;;352991;150;856800;-66
2021/12/08 06:05:38;;;;;;;15.11;8.11;;;;;;;;;;351441;152;864228;-65
2021/12/08 06:06:39;;;;;;;13.67;7.88;;;;;;;;;;353642;151;865084;-65
2021/12/08 06:07:42;;;;;;;13.51;7.92;;;;;;;;;;351196;151;857399;-65
2021/12/08 06:08:44;;;;;;;11.95;7.51;;;;;;;;;;350405;151;867379;-65
2021/12/08 06:09:45;;;;;;;14.02;7.98;;;;;;;;;;346623;152;857379;-65
2021/12/08 06:10:47;;;;;;;12.91;6.89;;;;;;;;;;350824;151;859937;-65
2021/12/08 06:11:49;;;;;;;14.14;8.21;;;;;;;;;;352447;151;865789;-65
2021/12/08 06:12:50;;;;;;;12.99;6.74;;;;;;;;;;353306;150;866703;-66
2021/12/08 06:13:52;;;;;;;10.94;7.24;;;;;;;;;;351089;152;866758;-65
2021/12/08 06:14:54;;;;;;;12.94;7.28;;;;;;;;;;352783;149;862946;-66
2021/12/08 06:15:56;;;;;;;12.65;6.95;;;;;;;;;;349958;151;865640;-65
2021/12/08 06:16:57;;;;;;;14.01;6.91;;;;;;;;;;351538;152;858850;-65
2021/12/08 06:17:59;;;;;;;14.12;7.36;;;;;;;;;;352034;151;864134;-65
2021/12/08 06:19:01;;;;;;;12.69;7.50;;;;;;;;;;352765;151;862424;-65
2021/12/08 06:20:03;;;;;;;11.67;6.80;;;;;;;;;;349104;150;866548;-65
2021/12/08 06:21:08;;;;;;;11.26;6.99;;;;;;;;;;351380;152;866711;-65
2021/12/08 06:22:10;;;;;;;13.06;7.29;;;;;;;;;;349107;149;865694;-65
2021/12/08 06:23:11;;;;;;;12.18;6.93;;;;;;;;;;352522;150;856661;-65
2021/12/08 06:24:13;;;;;;;14.89;7.72;;;;;;;;;;352490;152;857824;-65
2021/12/08 06:25:15;;;;;;;10.97;6.69;;;;;;;;;;348048;151;860900;-66
2021/12/08 06:26:17;;;;;;;13.41;7.19;;;;;;;;;;352211;151;864927;-66
2021/12/08 06:27:19;;;;;;;12.95;7.19;;;;;;;;;;351769;150;857212;-66
2021/12/08 06:28:21;;;;;;;11.49;6.91;;;;;;;;;;353118;152;857342;-67
2021/12/08 06:29:23;;;;;;;12.24;6.51;;;;;;;;;;352353;150;865932;-66
2021/12/08 06:30:27;;;;;;;12.61;7.04;;;;;;;;;;353695;150;864931;-66
2021/12/08 06:31:29;;;;;;;11.91;6.55;;;;;;;;;;351726;152;857996;-66
2021/12/08 06:32:30;;;;;;;14.43;7.47;;;;;;;;;;351476;151;857243;-66
2021/12/08 06:33:33;;;;;;;11.67;6.23;;;;;;;;;;351366;150;857017;-67
2021/12/08 06:34:36;;;;;;;12.95;7.19;;;;;;;;;;350091;152;865851;-66
2021/12/08 06:35:40;;;;;;;12.03;7.12;;;;;;;;;;352000;152;857272;-66
2021/12/08 06:36:47;;;;;;;11.94;6.68;;;;;;;;;;350551;149;857217;-65
2021/12/08 06:37:48;;;;;;;14.33;7.16;;;;;;;;;;352412;150;866714;-67
2021/12/08 06:38:50;;;;;;;10.64;6.36;;;;;;;;;;349958;152;857316;-66